Callahan, California
Current Conditions -  °F | °C
As of 5:15 AM on Wednesday 22 Oct 2014 (Local Time) from KO86 Reporting Station
Overcast Overcast  
Wind Chill: 41°   Ceiling: 400
Heat Index: 41°   Visibility: 10mi
Dew Point: 39°   Wind: 3mph
Humidity: 93%   Direction: 290°WNW
Pressure: 30.09"   Gusts: NA
Location:  41.31°N, 122.8°W
Report Text: KO86 221215Z AUTO 29003KT 10SM OVC004 05/04 A3009 RMK AO1
Loading
Personal Weather Stations






























Interactive Weather Map
Tropical Storm Tracking
New forecast layout! Learn more

10-Day Weather Forecast

Advertisements
Track Severe Weather on mobile